Terminal Aerodrome Forecast
Issued by NWS

Current Version | Previous Version | Graphics & Text | Print | Product List | Glossary On
Versions: 1 2 3 4 5 6 7 8 9 10 11 12 13 14 15 16 17 18 19
000
FTUS41 KRNK 181736
TAFLWB
TAF
KLWB 181736Z 1818/1918 23010G18KT P6SM FEW050
     FM190300 26010G20KT P6SM BKN025
     FM190500 27012G23KT P6SM VCSH BKN025
     FM190600 28015G29KT P6SM BKN015=

USA.gov is the U.S. government's official web portal to all federal, state and local government web resources and services.